createdAt,value
2023-02-13T00:00:02.414Z,5.57
2023-02-13T00:00:18.832Z,5.58
2023-02-13T00:00:52.885Z,5.58
2023-02-13T00:01:08.979Z,5.57
2023-02-13T00:01:21.636Z,5.57
2023-02-13T00:01:34.299Z,5.56
2023-02-13T00:01:47.215Z,5.53
2023-02-13T00:01:59.860Z,5.57
2023-02-13T00:02:12.677Z,5.57
2023-02-13T00:02:26.667Z,5.57
2023-02-13T00:02:39.499Z,5.57
2023-02-13T00:02:52.671Z,5.57
2023-02-13T00:03:05.456Z,5.58
2023-02-13T00:03:18.132Z,5.57
2023-02-13T00:03:30.827Z,5.57
2023-02-13T00:03:44.582Z,5.58
2023-02-13T00:03:57.281Z,5.57
2023-02-13T00:04:09.978Z,5.57
2023-02-13T00:04:22.689Z,5.58
2023-02-13T00:04:35.817Z,5.57
2023-02-13T00:04:49.477Z,5.57
2023-02-13T00:05:02.115Z,5.58
2023-02-13T00:05:15.010Z,5.59
2023-02-13T00:05:27.710Z,5.58
2023-02-13T00:05:40.377Z,5.59
2023-02-13T00:05:53.013Z,5.59
2023-02-13T00:06:07.253Z,5.59
2023-02-13T00:06:19.879Z,5.58
2023-02-13T00:06:32.543Z,5.59
2023-02-13T00:06:47.823Z,5.58
2023-02-13T00:07:00.921Z,5.59
2023-02-13T00:07:14.013Z,5.60
2023-02-13T00:07:27.733Z,5.59
2023-02-13T00:07:40.370Z,5.59
2023-02-13T00:07:53.014Z,5.59
2023-02-13T00:08:05.731Z,5.61
2023-02-13T00:08:18.380Z,5.61
2023-02-13T00:08:30.998Z,5.61
2023-02-13T00:08:44.637Z,5.61
2023-02-13T00:08:57.273Z,5.61
2023-02-13T00:09:11.199Z,5.61
2023-02-13T00:09:23.818Z,5.61
2023-02-13T00:09:36.447Z,5.61
2023-02-13T00:09:49.358Z,5.60
2023-02-13T00:10:02.111Z,5.61
2023-02-13T00:10:14.912Z,5.60
2023-02-13T00:10:28.831Z,5.61
2023-02-13T00:10:42.837Z,5.61
2023-02-13T00:10:55.780Z,5.61
2023-02-13T00:11:08.642Z,5.60
2023-02-13T00:11:21.317Z,5.62
2023-02-13T00:11:34.981Z,5.62
2023-02-13T00:11:47.607Z,5.62
2023-02-13T00:12:00.275Z,5.62
2023-02-13T00:12:12.889Z,5.62
2023-02-13T00:12:25.585Z,5.61
2023-02-13T00:12:38.267Z,5.63
2023-02-13T00:12:50.928Z,5.62
2023-02-13T00:13:03.646Z,5.62
2023-02-13T00:13:18.012Z,5.62
2023-02-13T00:13:30.688Z,5.62
2023-02-13T00:13:43.625Z,5.62
2023-02-13T00:13:56.428Z,5.62
2023-02-13T00:14:09.096Z,5.62
2023-02-13T00:14:21.878Z,5.61
2023-02-13T00:14:35.466Z,5.59
2023-02-13T00:14:49.743Z,5.60
2023-02-13T00:15:02.766Z,5.61
2023-02-13T00:15:15.392Z,5.62
2023-02-13T00:15:28.363Z,5.61
2023-02-13T00:15:41.030Z,5.60
2023-02-13T00:15:57.823Z,5.60
2023-02-13T00:16:11.637Z,5.60
2023-02-13T00:16:24.361Z,5.60
2023-02-13T00:16:37.043Z,5.60
2023-02-13T00:16:49.697Z,5.61
2023-02-13T00:17:02.504Z,5.60
2023-02-13T00:17:15.134Z,5.61
2023-02-13T00:17:28.173Z,5.61
2023-02-13T00:17:40.827Z,5.61
2023-02-13T00:17:54.481Z,5.60
2023-02-13T00:18:07.115Z,5.61
2023-02-13T00:18:19.956Z,5.61
2023-02-13T00:18:35.968Z,5.60
2023-02-13T00:18:48.604Z,5.61
2023-02-13T00:19:02.277Z,5.61
2023-02-13T00:19:14.952Z,5.61
2023-02-13T00:19:27.731Z,5.60
2023-02-13T00:19:40.507Z,5.59
2023-02-13T00:19:53.201Z,5.61
2023-02-13T00:20:07.160Z,5.60
2023-02-13T00:20:20.046Z,5.60
2023-02-13T00:20:33.831Z,5.60
2023-02-13T00:20:46.489Z,5.60
2023-02-13T00:21:01.349Z,5.60
2023-02-13T00:21:14.148Z,5.60
2023-02-13T00:21:27.139Z,5.60
2023-02-13T00:21:39.812Z,5.59
2023-02-13T00:21:53.579Z,5.59
2023-02-13T00:22:06.264Z,5.59
2023-02-13T00:22:19.016Z,5.60
2023-02-13T00:22:35.593Z,5.60
2023-02-13T00:22:48.253Z,5.60
2023-02-13T00:23:01.055Z,5.59
2023-02-13T00:23:13.710Z,5.59
2023-02-13T00:23:26.450Z,5.60
2023-02-13T00:23:41.228Z,5.60
2023-02-13T00:23:53.933Z,5.60
2023-02-13T00:24:06.839Z,5.61
2023-02-13T00:24:19.561Z,5.60
2023-02-13T00:24:32.247Z,5.60
2023-02-13T00:24:44.878Z,5.60
2023-02-13T00:24:57.541Z,5.60
2023-02-13T00:25:10.366Z,5.60
2023-02-13T00:25:24.028Z,5.60
2023-02-13T00:25:36.942Z,5.59
2023-02-13T00:25:50.989Z,5.60
2023-02-13T00:26:07.326Z,5.60
2023-02-13T00:26:20.091Z,5.60
2023-02-13T00:26:33.728Z,5.60
2023-02-13T00:26:46.402Z,5.60
2023-02-13T00:26:59.033Z,5.60
2023-02-13T00:27:11.724Z,5.60
2023-02-13T00:27:24.370Z,5.60
2023-02-13T00:27:37.046Z,5.60
2023-02-13T00:27:51.435Z,5.60
2023-02-13T00:28:05.228Z,5.61
2023-02-13T00:28:17.955Z,5.61
2023-02-13T00:28:30.697Z,5.60
2023-02-13T00:28:43.731Z,5.60
2023-02-13T00:28:57.284Z,5.61
2023-02-13T00:29:11.206Z,5.59
2023-02-13T00:29:23.992Z,5.61
2023-02-13T00:29:36.649Z,5.60
2023-02-13T00:29:49.289Z,5.60
2023-02-13T00:30:02.058Z,5.61
2023-02-13T00:30:15.827Z,5.59
2023-02-13T00:30:28.482Z,5.61
2023-02-13T00:30:41.172Z,5.61
2023-02-13T00:30:55.107Z,5.61
2023-02-13T00:31:10.105Z,5.59
2023-02-13T00:31:22.943Z,5.61
2023-02-13T00:31:35.732Z,5.59
2023-02-13T00:31:48.528Z,5.60
2023-02-13T00:32:01.670Z,5.60
2023-02-13T00:32:15.043Z,5.59
2023-02-13T00:32:27.826Z,5.60
2023-02-13T00:32:41.522Z,5.60
2023-02-13T00:32:54.130Z,5.61
2023-02-13T00:33:06.779Z,5.60
2023-02-13T00:33:19.677Z,5.60
2023-02-13T00:33:32.440Z,5.61
2023-02-13T00:33:45.363Z,5.61
2023-02-13T00:33:58.040Z,5.61
2023-02-13T00:34:11.755Z,5.60
2023-02-13T00:34:24.485Z,5.60
2023-02-13T00:34:37.165Z,5.61
2023-02-13T00:34:49.829Z,5.61
2023-02-13T00:35:02.537Z,5.60
2023-02-13T00:35:15.292Z,5.60
2023-02-13T00:35:28.980Z,5.61
2023-02-13T00:35:41.623Z,5.61
2023-02-13T00:36:03.105Z,5.61
2023-02-13T00:36:17.950Z,5.61
2023-02-13T00:36:31.859Z,5.60
2023-02-13T00:36:44.543Z,5.61
2023-02-13T00:36:57.233Z,5.60
2023-02-13T00:37:10.425Z,5.60
2023-02-13T00:37:23.267Z,5.61
2023-02-13T00:37:35.942Z,5.61
2023-02-13T00:37:48.592Z,5.61
2023-02-13T00:38:02.225Z,5.62
2023-02-13T00:38:14.824Z,5.61
2023-02-13T00:38:29.809Z,5.61
2023-02-13T00:38:43.350Z,5.61
2023-02-13T00:38:56.069Z,5.62
2023-02-13T00:39:12.120Z,5.60
2023-02-13T00:39:24.901Z,5.61
2023-02-13T00:39:38.602Z,5.60
2023-02-13T00:39:51.301Z,5.61
2023-02-13T00:40:04.242Z,5.61
2023-02-13T00:40:17.103Z,5.60
2023-02-13T00:40:29.840Z,5.60
2023-02-13T00:40:42.530Z,5.59
2023-02-13T00:40:56.847Z,5.59
2023-02-13T00:41:10.349Z,5.60
2023-02-13T00:41:23.999Z,5.59
2023-02-13T00:41:36.741Z,5.59
2023-02-13T00:41:49.396Z,5.59
2023-02-13T00:42:02.035Z,5.59
2023-02-13T00:42:14.717Z,5.59
2023-02-13T00:42:27.420Z,5.59
2023-02-13T00:42:40.056Z,5.58
2023-02-13T00:42:52.735Z,5.59
2023-02-13T00:43:06.360Z,5.59
2023-02-13T00:43:20.392Z,5.59
2023-02-13T00:43:33.656Z,5.59
2023-02-13T00:43:47.046Z,5.58
2023-02-13T00:43:59.668Z,5.58
2023-02-13T00:44:12.595Z,5.58
2023-02-13T00:44:25.288Z,5.59
2023-02-13T00:44:38.952Z,5.58
2023-02-13T00:44:51.940Z,5.58
2023-02-13T00:45:05.220Z,5.59
2023-02-13T00:45:17.890Z,5.57
2023-02-13T00:45:30.550Z,5.58
2023-02-13T00:45:43.726Z,5.58
2023-02-13T00:45:56.490Z,5.58
2023-02-13T00:46:10.219Z,5.58
2023-02-13T00:46:22.996Z,5.58
2023-02-13T00:46:36.573Z,5.58
2023-02-13T00:46:49.262Z,5.58
2023-02-13T00:47:01.969Z,5.58
2023-02-13T00:47:14.932Z,5.58
2023-02-13T00:47:27.638Z,5.59
2023-02-13T00:47:41.301Z,5.57
2023-02-13T00:47:53.964Z,5.59
2023-02-13T00:48:06.604Z,5.56
2023-02-13T00:48:19.256Z,5.56
2023-02-13T00:48:33.184Z,5.58
2023-02-13T00:48:46.123Z,5.58
2023-02-13T00:48:59.087Z,5.58
2023-02-13T00:49:12.796Z,5.58
2023-02-13T00:49:25.593Z,5.58
2023-02-13T00:49:38.202Z,5.58
2023-02-13T00:49:50.973Z,5.58
2023-02-13T00:50:04.040Z,5.58
2023-02-13T00:50:16.917Z,5.58
2023-02-13T00:50:29.576Z,5.57
2023-02-13T00:50:42.420Z,5.58
2023-02-13T00:50:56.525Z,5.58
2023-02-13T00:51:09.978Z,5.59
2023-02-13T00:51:22.653Z,5.58
2023-02-13T00:51:35.507Z,5.58
2023-02-13T00:51:48.410Z,5.58
2023-02-13T00:52:02.056Z,5.59
2023-02-13T00:52:14.763Z,5.58
2023-02-13T00:52:27.464Z,5.59
2023-02-13T00:52:40.120Z,5.59
2023-02-13T00:52:53.071Z,5.60
2023-02-13T00:53:05.732Z,5.60
2023-02-13T00:53:18.420Z,5.59
2023-02-13T00:53:31.614Z,5.59
2023-02-13T00:53:45.318Z,5.59
2023-02-13T00:53:57.968Z,5.59
2023-02-13T00:54:10.640Z,5.59
2023-02-13T00:54:23.306Z,5.59
2023-02-13T00:54:35.981Z,5.60
2023-02-13T00:54:48.767Z,5.60
2023-02-13T00:55:02.590Z,5.61
2023-02-13T00:55:15.396Z,5.61
2023-02-13T00:55:28.038Z,5.62
2023-02-13T00:55:40.676Z,5.60
2023-02-13T00:55:53.399Z,5.60
2023-02-13T00:56:08.436Z,5.60
2023-02-13T00:56:22.160Z,5.61
2023-02-13T00:56:34.871Z,5.60
2023-02-13T00:56:47.865Z,5.60
2023-02-13T00:57:00.514Z,5.60
2023-02-13T00:57:13.234Z,5.61
2023-02-13T00:57:25.948Z,5.60
2023-02-13T00:57:38.558Z,5.61
2023-02-13T00:57:52.240Z,5.60
2023-02-13T00:58:04.931Z,5.61
2023-02-13T00:58:18.910Z,5.61
2023-02-13T00:58:31.883Z,5.61
2023-02-13T00:58:44.890Z,5.61
2023-02-13T00:58:57.532Z,5.61
2023-02-13T00:59:11.203Z,5.60
2023-02-13T00:59:23.896Z,5.60
2023-02-13T00:59:36.572Z,5.61
2023-02-13T00:59:50.543Z,5.60
2023-02-13T01:00:04.207Z,5.60
2023-02-13T01:00:17.727Z,5.60
2023-02-13T01:00:32.992Z,5.60
2023-02-13T01:00:47.387Z,5.60
2023-02-13T01:01:00.456Z,5.60
2023-02-13T01:01:13.242Z,5.60
2023-02-13T01:01:26.161Z,5.59
2023-02-13T01:01:38.906Z,5.60
2023-02-13T01:01:51.545Z,5.58
2023-02-13T01:02:05.378Z,5.59
2023-02-13T01:02:17.972Z,5.59
2023-02-13T01:02:30.641Z,5.58
2023-02-13T01:02:43.288Z,5.57
2023-02-13T01:02:56.124Z,5.58
2023-02-13T01:03:08.970Z,5.59
2023-02-13T01:03:22.090Z,5.58
2023-02-13T01:03:35.953Z,5.59
2023-02-13T01:03:48.692Z,5.60
2023-02-13T01:04:01.370Z,5.59
2023-02-13T01:04:14.047Z,5.59
2023-02-13T01:04:26.742Z,5.58
2023-02-13T01:04:39.746Z,5.58
2023-02-13T01:04:52.409Z,5.57
2023-02-13T01:05:06.387Z,5.57
2023-02-13T01:05:19.251Z,5.59
2023-02-13T01:05:32.034Z,5.59
2023-02-13T01:05:45.291Z,5.60
2023-02-13T01:05:58.279Z,5.60
2023-02-13T01:06:10.923Z,5.60
2023-02-13T01:06:24.622Z,5.59
2023-02-13T01:06:37.340Z,5.59
2023-02-13T01:06:50.050Z,5.59
2023-02-13T01:07:02.695Z,5.60
2023-02-13T01:07:16.688Z,5.57
2023-02-13T01:07:29.339Z,5.59
2023-02-13T01:07:42.998Z,5.58
2023-02-13T01:07:55.654Z,5.59
2023-02-13T01:08:08.300Z,5.59
2023-02-13T01:08:21.338Z,5.59
2023-02-13T01:08:34.389Z,5.58
2023-02-13T01:08:47.113Z,5.58
2023-02-13T01:08:59.778Z,5.59
2023-02-13T01:09:12.788Z,5.58
2023-02-13T01:09:26.647Z,5.58
2023-02-13T01:09:39.249Z,5.57
2023-02-13T01:09:51.866Z,5.58
2023-02-13T01:10:04.852Z,5.58
2023-02-13T01:10:17.823Z,5.58
2023-02-13T01:10:30.655Z,5.58
2023-02-13T01:10:44.913Z,5.58
2023-02-13T01:10:58.924Z,5.58
2023-02-13T01:11:13.159Z,5.57
2023-02-13T01:11:25.983Z,5.58
2023-02-13T01:11:38.647Z,5.57
2023-02-13T01:11:51.271Z,5.57
2023-02-13T01:12:03.993Z,5.58
2023-02-13T01:12:17.907Z,5.57
2023-02-13T01:12:30.518Z,5.58
2023-02-13T01:12:43.148Z,5.57
2023-02-13T01:12:55.830Z,5.57
2023-02-13T01:13:09.545Z,5.57
2023-02-13T01:13:22.209Z,5.54
2023-02-13T01:13:35.129Z,5.58
2023-02-13T01:13:48.777Z,5.57
2023-02-13T01:14:01.641Z,5.58
2023-02-13T01:14:14.340Z,5.58
2023-02-13T01:14:26.973Z,5.56
2023-02-13T01:14:39.630Z,5.57
2023-02-13T01:14:52.564Z,5.57
2023-02-13T01:15:07.040Z,5.57
2023-02-13T01:15:19.793Z,5.58
2023-02-13T01:15:32.786Z,5.59
2023-02-13T01:15:46.350Z,5.57
2023-02-13T01:15:59.277Z,5.58
2023-02-13T01:16:12.316Z,5.57
2023-02-13T01:16:26.078Z,5.58
2023-02-13T01:16:39.017Z,5.56
2023-02-13T01:16:51.593Z,5.56
2023-02-13T01:17:04.217Z,5.57
2023-02-13T01:17:16.878Z,5.57
2023-02-13T01:17:29.519Z,5.56
2023-02-13T01:17:42.181Z,5.56
2023-02-13T01:17:57.388Z,5.54
2023-02-13T01:18:12.154Z,5.56
2023-02-13T01:18:24.990Z,5.57
2023-02-13T01:18:37.694Z,5.57
2023-02-13T01:18:50.411Z,5.57
2023-02-13T01:19:04.439Z,5.57
2023-02-13T01:19:17.365Z,5.57
2023-02-13T01:19:30.982Z,5.56
2023-02-13T01:19:43.631Z,5.57
2023-02-13T01:19:56.235Z,5.57
2023-02-13T01:20:11.189Z,5.56
2023-02-13T01:20:25.181Z,5.57
2023-02-13T01:20:37.869Z,5.57
2023-02-13T01:20:58.092Z,5.56
2023-02-13T01:21:17.681Z,5.56
2023-02-13T01:21:30.296Z,5.57
2023-02-13T01:21:44.010Z,5.57
2023-02-13T01:21:56.668Z,5.57
2023-02-13T01:22:09.764Z,5.57
2023-02-13T01:22:22.378Z,5.57
2023-02-13T01:22:36.193Z,5.56
2023-02-13T01:22:49.200Z,5.57
2023-02-13T01:23:01.829Z,5.57
2023-02-13T01:23:14.454Z,5.56
2023-02-13T01:23:30.575Z,5.58
2023-02-13T01:23:43.441Z,5.57
2023-02-13T01:23:57.116Z,5.58
2023-02-13T01:24:10.126Z,5.56
2023-02-13T01:24:22.748Z,5.57
2023-02-13T01:24:35.341Z,5.58
2023-02-13T01:24:47.979Z,5.57
2023-02-13T01:25:00.619Z,5.57
2023-02-13T01:25:14.255Z,5.57
2023-02-13T01:25:28.228Z,5.57
2023-02-13T01:25:42.019Z,5.57
2023-02-13T01:25:54.599Z,5.57
2023-02-13T01:26:09.041Z,5.58
2023-02-13T01:26:25.399Z,5.57
2023-02-13T01:26:38.106Z,5.57
2023-02-13T01:26:50.768Z,5.57
2023-02-13T01:27:03.423Z,5.56
2023-02-13T01:27:17.204Z,5.54
2023-02-13T01:27:30.802Z,5.56
2023-02-13T01:27:43.484Z,5.56
2023-02-13T01:27:56.617Z,5.57
2023-02-13T01:28:09.399Z,5.57
2023-02-13T01:28:23.129Z,5.57
2023-02-13T01:28:35.818Z,5.56
2023-02-13T01:28:48.634Z,5.57
2023-02-13T01:29:01.914Z,5.55
2023-02-13T01:29:15.066Z,5.57
2023-02-13T01:29:27.711Z,5.56
2023-02-13T01:29:41.383Z,5.57
2023-02-13T01:29:54.107Z,5.57
2023-02-13T01:30:13.562Z,5.54
2023-02-13T01:30:26.252Z,5.57
2023-02-13T01:30:38.970Z,5.57
2023-02-13T01:30:55.768Z,5.56
2023-02-13T01:31:09.995Z,5.56
2023-02-13T01:31:22.825Z,5.56
2023-02-13T01:31:35.661Z,5.55
2023-02-13T01:31:48.717Z,5.57
2023-02-13T01:32:03.815Z,5.57
2023-02-13T01:32:16.587Z,5.57
2023-02-13T01:32:29.338Z,5.57
2023-02-13T01:32:44.151Z,5.58
2023-02-13T01:32:56.812Z,5.54
2023-02-13T01:33:10.817Z,5.57
2023-02-13T01:33:24.215Z,5.57
2023-02-13T01:33:36.936Z,5.56
2023-02-13T01:33:49.844Z,5.55
2023-02-13T01:34:03.558Z,5.58
2023-02-13T01:34:16.182Z,5.58
2023-02-13T01:34:28.839Z,5.58
2023-02-13T01:34:41.521Z,5.59
2023-02-13T01:34:54.165Z,5.57
2023-02-13T01:35:07.735Z,5.58
2023-02-13T01:35:20.552Z,5.57
2023-02-13T01:35:33.243Z,5.57
2023-02-13T01:35:47.209Z,5.57
2023-02-13T01:36:00.498Z,5.59
2023-02-13T01:36:14.407Z,5.58
2023-02-13T01:36:27.622Z,5.57
2023-02-13T01:36:40.261Z,5.58
2023-02-13T01:36:53.903Z,5.58
2023-02-13T01:37:06.603Z,5.58
2023-02-13T01:37:19.427Z,5.58
2023-02-13T01:37:32.160Z,5.59
2023-02-13T01:37:44.910Z,5.57
2023-02-13T01:37:57.546Z,5.57
2023-02-13T01:38:10.152Z,5.57
2023-02-13T01:38:22.871Z,5.57
2023-02-13T01:38:36.524Z,5.58
2023-02-13T01:38:52.551Z,5.58
2023-02-13T01:39:05.236Z,5.57
2023-02-13T01:39:17.858Z,5.57
2023-02-13T01:39:30.732Z,5.58
2023-02-13T01:39:43.643Z,5.57
2023-02-13T01:39:56.483Z,5.54
2023-02-13T01:40:13.360Z,5.56
2023-02-13T01:40:30.006Z,5.58
2023-02-13T01:40:47.167Z,5.59
2023-02-13T01:41:00.046Z,5.58
2023-02-13T01:41:13.080Z,5.58
2023-02-13T01:41:28.968Z,5.58
2023-02-13T01:41:41.577Z,5.58
2023-02-13T01:41:54.214Z,5.58
2023-02-13T01:42:15.574Z,5.58
2023-02-13T01:42:30.066Z,5.58
2023-02-13T01:42:43.754Z,5.59
2023-02-13T01:42:56.468Z,5.58
2023-02-13T01:43:12.098Z,5.58
2023-02-13T01:43:25.283Z,5.56
2023-02-13T01:43:46.824Z,5.58
2023-02-13T01:44:02.373Z,5.59
2023-02-13T01:44:47.300Z,5.58
2023-02-13T01:45:01.530Z,5.59
2023-02-13T01:45:23.459Z,5.60
2023-02-13T01:45:36.240Z,5.59
2023-02-13T01:45:53.472Z,5.60
2023-02-13T01:46:06.209Z,5.60
2023-02-13T01:46:24.936Z,5.60
2023-02-13T01:46:42.875Z,5.60
2023-02-13T01:46:55.812Z,5.61
2023-02-13T01:47:10.434Z,5.60
2023-02-13T01:47:29.108Z,5.60
2023-02-13T01:47:45.601Z,5.60
2023-02-13T01:48:02.397Z,5.61
2023-02-13T01:48:18.746Z,5.59
2023-02-13T01:48:32.457Z,5.60
2023-02-13T01:48:46.363Z,5.60
2023-02-13T01:49:06.470Z,5.59
2023-02-13T01:49:23.793Z,5.59
2023-02-13T01:49:37.079Z,5.59
2023-02-13T01:49:54.572Z,5.59
2023-02-13T01:50:12.841Z,5.60
2023-02-13T01:50:32.598Z,5.59
2023-02-13T01:50:49.933Z,5.59
2023-02-13T01:51:07.181Z,5.59
2023-02-13T01:51:23.977Z,5.59
2023-02-13T01:51:37.295Z,5.60
2023-02-13T01:51:54.033Z,5.59
2023-02-13T01:52:09.548Z,5.59
2023-02-13T01:52:22.245Z,5.59
2023-02-13T01:52:39.393Z,5.58
2023-02-13T01:52:56.064Z,5.59
2023-02-13T01:53:12.385Z,5.59
2023-02-13T01:53:30.728Z,5.59
2023-02-13T01:53:46.837Z,5.60
2023-02-13T01:54:02.997Z,5.59
2023-02-13T01:54:20.636Z,5.60
2023-02-13T01:54:35.773Z,5.59
2023-02-13T01:54:48.535Z,5.58
2023-02-13T01:55:01.782Z,5.59
2023-02-13T01:55:15.503Z,5.59
2023-02-13T01:55:29.617Z,5.59
2023-02-13T01:55:48.445Z,5.58
2023-02-13T01:56:12.680Z,5.59
2023-02-13T01:56:33.774Z,5.59
2023-02-13T01:56:50.289Z,5.59
2023-02-13T01:57:08.953Z,5.58
2023-02-13T01:57:25.402Z,5.58
2023-02-13T01:57:42.057Z,5.56
2023-02-13T01:57:59.402Z,5.58
2023-02-13T01:58:20.430Z,5.56
2023-02-13T01:58:36.893Z,5.58
2023-02-13T01:58:53.462Z,5.57
2023-02-13T01:59:11.299Z,5.58
2023-02-13T01:59:28.946Z,5.56
2023-02-13T01:59:47.743Z,5.58
2023-02-13T02:00:04.946Z,5.58
2023-02-13T02:00:18.374Z,5.57
2023-02-13T02:00:31.559Z,5.56
2023-02-13T02:00:49.777Z,5.57
2023-02-13T02:01:04.007Z,5.57
2023-02-13T02:01:17.336Z,5.58
2023-02-13T02:01:31.959Z,5.58
2023-02-13T02:01:45.402Z,5.56
2023-02-13T02:01:59.813Z,5.58
2023-02-13T02:02:13.323Z,5.57
2023-02-13T02:02:27.146Z,5.57
2023-02-13T02:02:44.900Z,5.58
2023-02-13T02:03:03.159Z,5.57
2023-02-13T02:03:21.493Z,5.57
2023-02-13T02:03:39.373Z,5.57
2023-02-13T02:03:56.877Z,5.57
2023-02-13T02:04:13.601Z,5.57
2023-02-13T02:04:31.638Z,5.58
2023-02-13T02:04:47.415Z,5.57
2023-02-13T02:05:02.596Z,5.57
2023-02-13T02:05:17.102Z,5.58
2023-02-13T02:05:32.815Z,5.58
2023-02-13T02:05:46.999Z,5.58
2023-02-13T02:06:01.668Z,5.56
2023-02-13T02:06:19.022Z,5.56
2023-02-13T02:06:35.805Z,5.55
2023-02-13T02:06:53.973Z,5.58
2023-02-13T02:07:14.051Z,5.59
2023-02-13T02:07:29.891Z,5.57
2023-02-13T02:07:43.019Z,5.59
2023-02-13T02:07:58.803Z,5.58
2023-02-13T02:08:14.048Z,5.59
2023-02-13T02:08:28.405Z,5.59
2023-02-13T02:08:41.288Z,5.60
2023-02-13T02:08:56.129Z,5.60
2023-02-13T02:09:12.693Z,5.61
2023-02-13T02:09:28.537Z,5.60
2023-02-13T02:09:44.160Z,5.60
2023-02-13T02:10:00.524Z,5.59
2023-02-13T02:10:18.088Z,5.59
2023-02-13T02:10:32.616Z,5.59
2023-02-13T02:10:45.603Z,5.58
2023-02-13T02:11:06.635Z,5.59
2023-02-13T02:11:26.935Z,5.59
2023-02-13T02:11:48.077Z,5.58
2023-02-13T02:12:05.240Z,5.58
2023-02-13T02:12:27.136Z,5.59
2023-02-13T02:12:45.505Z,5.58
2023-02-13T02:13:04.340Z,5.59
2023-02-13T02:13:19.546Z,5.60
2023-02-13T02:13:32.250Z,5.58
2023-02-13T02:13:46.586Z,5.59
2023-02-13T02:14:00.706Z,5.57
2023-02-13T02:14:14.333Z,5.58
2023-02-13T02:14:27.292Z,5.58
2023-02-13T02:14:41.395Z,5.58
2023-02-13T02:14:58.283Z,5.59
2023-02-13T02:15:11.069Z,5.58
2023-02-13T02:15:23.841Z,5.58
2023-02-13T02:15:36.809Z,5.58
2023-02-13T02:15:50.676Z,5.58
2023-02-13T02:16:04.391Z,5.57
2023-02-13T02:16:17.466Z,5.59
2023-02-13T02:16:32.571Z,5.59
2023-02-13T02:16:45.238Z,5.59
2023-02-13T02:16:58.610Z,5.58
2023-02-13T02:17:12.080Z,5.58
2023-02-13T02:17:26.300Z,5.59
2023-02-13T02:17:38.969Z,5.58
2023-02-13T02:17:52.698Z,5.59
2023-02-13T02:18:07.219Z,5.59
2023-02-13T02:18:21.124Z,5.58
2023-02-13T02:18:33.761Z,5.59
2023-02-13T02:18:46.464Z,5.59
2023-02-13T02:19:01.556Z,5.58
2023-02-13T02:19:20.079Z,5.59
2023-02-13T02:19:39.852Z,5.59
2023-02-13T02:20:04.472Z,5.59
2023-02-13T02:20:30.517Z,5.59
2023-02-13T02:21:17.151Z,5.60
2023-02-13T02:22:06.009Z,5.57
2023-02-13T02:23:08.899Z,5.60
2023-02-13T02:23:54.592Z,5.60
2023-02-13T02:24:37.064Z,5.60
2023-02-13T02:25:19.116Z,5.59
2023-02-13T02:26:11.725Z,5.60
2023-02-13T02:27:00.937Z,5.59
2023-02-13T02:27:45.772Z,5.60
2023-02-13T02:28:31.202Z,5.61
2023-02-13T02:29:13.196Z,5.61
2023-02-13T02:29:53.033Z,5.61
2023-02-13T02:30:46.831Z,5.61
2023-02-13T02:31:30.264Z,5.62
2023-02-13T02:32:09.467Z,5.61
2023-02-13T02:32:41.810Z,5.62
2023-02-13T02:33:09.727Z,5.61
2023-02-13T02:33:37.338Z,5.61
2023-02-13T02:34:07.164Z,5.60
2023-02-13T02:34:31.263Z,5.61
2023-02-13T02:34:54.536Z,5.61
2023-02-13T02:35:19.871Z,5.61
2023-02-13T02:35:42.842Z,5.61
2023-02-13T02:36:10.609Z,5.61
2023-02-13T02:36:36.229Z,5.61
2023-02-13T02:37:08.291Z,5.61
2023-02-13T02:37:35.638Z,5.60
2023-02-13T02:38:02.790Z,5.61
2023-02-13T02:38:33.587Z,5.60
2023-02-13T02:39:01.905Z,5.59
2023-02-13T02:39:27.627Z,5.60
2023-02-13T02:39:53.303Z,5.61
2023-02-13T02:40:14.305Z,5.58
2023-02-13T02:40:34.873Z,5.61
2023-02-13T02:41:01.651Z,5.60
2023-02-13T02:41:39.019Z,5.61
2023-02-13T02:41:59.639Z,5.60
2023-02-13T02:42:25.935Z,5.61
2023-02-13T02:42:51.126Z,5.61
2023-02-13T02:43:18.420Z,5.60
2023-02-13T02:43:43.661Z,5.60
2023-02-13T02:44:09.628Z,5.62
2023-02-13T02:44:33.083Z,5.61
2023-02-13T02:44:53.752Z,5.60
2023-02-13T02:45:12.429Z,5.61
2023-02-13T02:45:30.817Z,5.60
2023-02-13T02:45:51.371Z,5.60
2023-02-13T02:46:11.879Z,5.60
2023-02-13T02:46:34.218Z,5.59
2023-02-13T02:47:15.686Z,5.59
2023-02-13T02:47:56.696Z,5.58
2023-02-13T02:48:35.561Z,5.59
2023-02-13T02:49:13.833Z,5.58
2023-02-13T02:49:46.019Z,5.59
2023-02-13T02:50:11.824Z,5.59
2023-02-13T02:50:33.240Z,5.58
2023-02-13T02:50:52.328Z,5.58
2023-02-13T02:51:13.266Z,5.57
2023-02-13T02:51:38.009Z,5.59
2023-02-13T02:51:58.847Z,5.58
2023-02-13T02:52:15.928Z,5.58
2023-02-13T02:52:38.800Z,5.58
2023-02-13T02:53:04.762Z,5.58
2023-02-13T02:53:29.068Z,5.59
2023-02-13T02:53:50.226Z,5.58
2023-02-13T02:54:26.006Z,5.58
2023-02-13T02:55:03.907Z,5.59
2023-02-13T02:55:29.214Z,5.58
2023-02-13T02:55:47.104Z,5.57
2023-02-13T02:56:07.067Z,5.57
2023-02-13T02:56:26.148Z,5.59
2023-02-13T02:56:42.902Z,5.58
2023-02-13T02:57:03.870Z,5.58
2023-02-13T02:57:21.856Z,5.58
2023-02-13T02:57:58.349Z,5.58
2023-02-13T02:58:36.794Z,5.56
2023-02-13T02:59:13.769Z,5.58
2023-02-13T02:59:43.597Z,5.57
2023-02-13T03:00:15.406Z,5.56
2023-02-13T03:00:49.607Z,5.58
2023-02-13T03:01:24.422Z,5.59
2023-02-13T03:01:57.351Z,5.58
2023-02-13T03:02:30.724Z,5.58
2023-02-13T03:03:03.473Z,5.58
2023-02-13T03:03:37.605Z,5.57
2023-02-13T03:04:09.464Z,5.57
2023-02-13T03:04:45.862Z,5.57
2023-02-13T03:05:19.705Z,5.58
2023-02-13T03:06:10.974Z,5.58
2023-02-13T03:06:28.836Z,5.55
2023-02-13T03:06:47.000Z,5.56
2023-02-13T03:07:02.977Z,5.57
2023-02-13T03:07:18.351Z,5.56
2023-02-13T03:07:31.131Z,5.58
2023-02-13T03:07:44.305Z,5.58
2023-02-13T03:07:56.982Z,5.57
2023-02-13T03:08:10.704Z,5.56
2023-02-13T03:08:38.489Z,5.57
2023-02-13T03:09:13.329Z,5.57
2023-02-13T03:09:48.767Z,5.56
2023-02-13T03:10:23.282Z,5.56
2023-02-13T03:10:57.127Z,5.56
2023-02-13T03:11:37.058Z,5.57
2023-02-13T03:12:10.536Z,5.55
2023-02-13T03:12:45.688Z,5.57
2023-02-13T03:13:18.667Z,5.57
2023-02-13T03:13:40.900Z,5.57
2023-02-13T03:13:54.785Z,5.57
2023-02-13T03:14:11.652Z,5.56
2023-02-13T03:14:27.182Z,5.57
2023-02-13T03:14:39.866Z,5.57
2023-02-13T03:14:52.502Z,5.57
2023-02-13T03:15:06.728Z,5.57
2023-02-13T03:15:19.689Z,5.57
2023-02-13T03:15:35.630Z,5.57
2023-02-13T03:16:09.503Z,5.57
2023-02-13T03:16:43.882Z,5.57
2023-02-13T03:17:17.325Z,5.57
2023-02-13T03:17:48.581Z,5.55
2023-02-13T03:18:21.344Z,5.56
2023-02-13T03:18:57.361Z,5.56
2023-02-13T03:19:36.382Z,5.56
2023-02-13T03:20:26.912Z,5.56
2023-02-13T03:21:04.066Z,5.57
2023-02-13T03:21:41.464Z,5.56
2023-02-13T03:22:17.866Z,5.54
2023-02-13T03:22:42.325Z,5.56
2023-02-13T03:23:06.302Z,5.54
2023-02-13T03:23:26.574Z,5.53
2023-02-13T03:23:53.335Z,5.55
2023-02-13T03:24:17.342Z,5.55
2023-02-13T03:24:39.159Z,5.55
2023-02-13T03:25:05.480Z,5.55
2023-02-13T03:25:30.303Z,5.54
2023-02-13T03:26:02.701Z,5.56
2023-02-13T03:26:46.196Z,5.56
2023-02-13T03:27:08.809Z,5.58
2023-02-13T03:27:53.425Z,5.56
2023-02-13T03:28:34.405Z,5.58
2023-02-13T03:29:14.842Z,5.58
2023-02-13T03:29:57.299Z,5.57
2023-02-13T03:30:22.607Z,5.57
2023-02-13T03:30:46.458Z,5.58
2023-02-13T03:31:08.770Z,5.58
2023-02-13T03:31:32.892Z,5.57
2023-02-13T03:32:01.673Z,5.57
2023-02-13T03:32:26.077Z,5.58
2023-02-13T03:32:48.243Z,5.58
2023-02-13T03:33:15.530Z,5.58
2023-02-13T03:33:43.036Z,5.58
2023-02-13T03:34:03.909Z,5.58
2023-02-13T03:34:22.157Z,5.57
2023-02-13T03:34:54.299Z,5.58
2023-02-13T03:35:41.327Z,5.58
2023-02-13T03:36:21.746Z,5.58
2023-02-13T03:37:02.743Z,5.56
2023-02-13T03:37:37.006Z,5.58
2023-02-13T03:37:56.889Z,5.57
2023-02-13T03:38:18.155Z,5.58
2023-02-13T03:38:42.240Z,5.58
2023-02-13T03:39:00.721Z,5.58
2023-02-13T03:39:18.953Z,5.59
2023-02-13T03:39:43.004Z,5.59
2023-02-13T03:40:02.897Z,5.59
2023-02-13T03:40:18.394Z,5.59
2023-02-13T03:40:36.914Z,5.58
2023-02-13T03:41:10.652Z,5.59
2023-02-13T03:41:28.881Z,5.59
2023-02-13T03:41:45.963Z,5.59
2023-02-13T03:42:04.248Z,5.60
2023-02-13T03:42:24.075Z,5.61
2023-02-13T03:42:42.562Z,5.61
2023-02-13T03:43:04.481Z,5.61
2023-02-13T03:43:19.787Z,5.62
2023-02-13T03:43:40.447Z,5.61
2023-02-13T03:44:01.089Z,5.60
2023-02-13T03:44:21.925Z,5.60
2023-02-13T03:44:40.285Z,5.62
2023-02-13T03:45:12.050Z,5.61
2023-02-13T03:45:47.996Z,5.61
2023-02-13T03:46:03.530Z,5.61
2023-02-13T03:46:18.402Z,5.62
2023-02-13T03:46:35.959Z,5.61
2023-02-13T03:46:52.617Z,5.62
2023-02-13T03:47:09.066Z,5.61
2023-02-13T03:47:21.802Z,5.61
2023-02-13T03:47:35.198Z,5.61
2023-02-13T03:47:50.941Z,5.61
2023-02-13T03:48:29.711Z,5.62
2023-02-13T03:49:02.943Z,5.62
2023-02-13T03:49:40.413Z,5.60
2023-02-13T03:50:14.933Z,5.62
2023-02-13T03:50:29.175Z,5.63
2023-02-13T03:50:44.484Z,5.62
2023-02-13T03:50:59.691Z,5.61
2023-02-13T03:51:18.240Z,5.62